Time;durP1;ratioP1;P1;durP2;ratioP2;P2;SDS_P1;SDS_P2;PMS_P1;PMS_P2;Temp;Humidity;BMP_temperature;BMP_pressure;BME280_temperature;BME280_humidity;BME280_pressure;Samples;Min_cycle;Max_cycle;Signal;HPM_P1;HPM_P2
2022/04/04 00:01:51;;;;;;;6.43;4.93;;;3.50;99.90;;;;;;5077192;28;20203;-58
2022/04/04 00:04:17;;;;;;;5.80;5.20;;;3.50;99.90;;;;;;5095345;28;20189;-59
2022/04/04 00:06:43;;;;;;;7.73;5.50;;;3.40;99.90;;;;;;5095278;28;20297;-59
2022/04/04 00:09:09;;;;;;;6.33;5.00;;;3.40;99.90;;;;;;5095242;28;20275;-60
2022/04/04 00:11:34;;;;;;;6.07;5.47;;;3.40;99.90;;;;;;5077120;28;20206;-59
2022/04/04 00:14:00;;;;;;;5.67;5.07;;;3.40;99.90;;;;;;5095067;28;20177;-58
2022/04/04 00:16:26;;;;;;;5.73;5.13;;;3.30;99.90;;;;;;5094964;28;20173;-58
2022/04/04 00:18:52;;;;;;;5.93;5.23;;;3.30;99.90;;;;;;5095118;28;20177;-59
2022/04/04 00:21:18;;;;;;;7.03;5.07;;;3.30;99.90;;;;;;5077026;28;20250;-59
2022/04/04 00:23:44;;;;;;;6.07;5.47;;;3.30;99.90;;;;;;5043720;28;20185;-59
2022/04/04 00:26:09;;;;;;;6.17;4.87;;;3.30;99.90;;;;;;5076808;28;20184;-59
2022/04/04 00:28:35;;;;;;;7.13;5.30;;;3.20;99.90;;;;;;5094712;28;20210;-59
2022/04/04 00:31:01;;;;;;;5.73;4.80;;;3.10;99.90;;;;;;5076411;28;20179;-59
2022/04/04 00:33:26;;;;;;;5.40;4.83;;;3.20;99.90;;;;;;5094820;28;20188;-59
2022/04/04 00:35:52;;;;;;;6.10;4.60;;;3.20;99.90;;;;;;5094581;28;20233;-61
2022/04/04 00:38:18;;;;;;;5.53;4.80;;;3.20;99.90;;;;;;5076642;28;20170;-59
2022/04/04 00:40:43;;;;;;;6.47;4.73;;;3.20;99.90;;;;;;5076491;28;20185;-59
2022/04/04 00:43:09;;;;;;;5.53;4.60;;;3.10;99.90;;;;;;5094659;28;20307;-59
2022/04/04 00:45:35;;;;;;;5.87;5.00;;;3.10;99.90;;;;;;5058722;28;20306;-59
2022/04/04 00:48:02;;;;;;;5.17;4.60;;;3.10;99.90;;;;;;5059230;28;20178;-59
2022/04/04 00:50:28;;;;;;;5.67;4.70;;;3.10;99.90;;;;;;5094262;28;20213;-59
2022/04/04 00:52:54;;;;;;;5.43;4.57;;;3.00;99.90;;;;;;5076300;28;20182;-59
2022/04/04 00:55:20;;;;;;;5.23;4.20;;;3.10;99.90;;;;;;5094249;28;20205;-59
2022/04/04 00:57:46;;;;;;;5.13;4.27;;;3.00;99.90;;;;;;5094177;28;20181;-58
2022/04/04 01:00:12;;;;;;;6.60;4.60;;;3.00;99.90;;;;;;5094091;28;20180;-59
2022/04/04 01:02:39;;;;;;;4.90;4.40;;;3.00;99.90;;;;;;5076159;28;20190;-59
2022/04/04 01:05:06;;;;;;;5.50;4.50;;;2.90;99.90;;;;;;5094441;28;20196;-58
2022/04/04 01:07:35;;;;;;;6.17;4.80;;;2.90;99.90;;;;;;5075862;28;20594;-59
2022/04/04 01:10:01;;;;;;;9.80;4.83;;;2.80;99.90;;;;;;5093856;28;20205;-59
2022/04/04 01:12:27;;;;;;;5.60;4.53;;;2.90;99.90;;;;;;5075887;28;20238;-59
2022/04/04 01:14:53;;;;;;;4.97;4.47;;;2.90;99.90;;;;;;5094132;28;20188;-59
2022/04/04 01:17:21;;;;;;;4.97;4.47;;;3.00;99.90;;;;;;5076028;28;20635;-59
2022/04/04 01:19:47;;;;;;;5.70;5.10;;;3.00;99.90;;;;;;5093894;28;20233;-59
2022/04/04 01:22:14;;;;;;;5.77;4.67;;;3.00;99.90;;;;;;5093940;28;20173;-59
2022/04/04 01:24:41;;;;;;;5.90;4.80;;;2.90;99.90;;;;;;5093779;28;20229;-59
2022/04/04 01:27:08;;;;;;;5.97;4.80;;;2.90;99.90;;;;;;5075772;28;20176;-59
2022/04/04 01:29:35;;;;;;;6.97;5.00;;;2.90;99.90;;;;;;5093561;28;20287;-59
2022/04/04 01:32:02;;;;;;;5.73;4.50;;;2.90;99.90;;;;;;5093452;28;20304;-59
2022/04/04 01:34:29;;;;;;;6.20;4.70;;;2.80;99.90;;;;;;5093536;28;20192;-59
2022/04/04 01:36:55;;;;;;;8.37;4.67;;;2.90;99.90;;;;;;5059138;28;20185;-59
2022/04/04 01:39:22;;;;;;;6.53;4.73;;;2.80;99.90;;;;;;5093490;28;20189;-58
2022/04/04 01:41:48;;;;;;;6.63;4.93;;;2.80;99.90;;;;;;5093401;28;20173;-59
2022/04/04 01:44:14;;;;;;;5.07;4.57;;;2.80;99.90;;;;;;5093890;28;20246;-59
2022/04/04 01:46:39;;;;;;;6.17;5.17;;;2.80;99.90;;;;;;5093583;28;20177;-59
2022/04/04 01:49:06;;;;;;;7.13;4.87;;;2.80;99.90;;;;;;5093206;28;20300;-59
2022/04/04 01:51:36;;;;;;;6.90;5.10;;;2.70;99.90;;;;;;5075467;28;20178;-59
2022/04/04 01:54:02;;;;;;;6.23;4.73;;;2.70;99.90;;;;;;5093595;28;20628;-59
2022/04/04 01:56:29;;;;;;;6.73;5.03;;;2.70;99.90;;;;;;5092792;28;20176;-58
2022/04/04 01:58:55;;;;;;;7.27;4.80;;;2.80;99.90;;;;;;5093232;28;20174;-59
2022/04/04 02:01:22;;;;;;;6.97;4.93;;;2.70;99.90;;;;;;5093021;28;20572;-59
2022/04/04 02:03:50;;;;;;;6.57;5.43;;;2.90;99.90;;;;;;5075017;28;20238;-59
2022/04/04 02:06:18;;;;;;;7.57;5.47;;;2.80;99.90;;;;;;5075079;28;20176;-59
2022/04/04 02:08:44;;;;;;;8.00;5.30;;;2.90;99.90;;;;;;5093006;28;20212;-59
2022/04/04 02:11:12;;;;;;;6.13;5.03;;;2.80;99.90;;;;;;5093371;28;20184;-59
2022/04/04 02:13:38;;;;;;;7.73;5.30;;;2.80;99.90;;;;;;5093306;28;20668;-59
2022/04/04 02:16:04;;;;;;;8.33;5.37;;;2.90;99.90;;;;;;5058488;28;20209;-59
2022/04/04 02:18:31;;;;;;;7.77;5.47;;;2.90;99.90;;;;;;5093143;28;20300;-59
2022/04/04 02:20:57;;;;;;;6.27;5.13;;;2.80;99.90;;;;;;5058809;28;20174;-59
2022/04/04 02:23:24;;;;;;;8.33;5.30;;;2.80;99.90;;;;;;5092857;28;20185;-59
2022/04/04 02:25:52;;;;;;;8.00;5.83;;;2.80;99.90;;;;;;5093148;28;20185;-59
2022/04/04 02:28:18;;;;;;;8.40;5.30;;;2.80;99.90;;;;;;5075108;28;20177;-59
2022/04/04 02:30:45;;;;;;;5.90;5.30;;;2.90;99.90;;;;;;5058405;28;20562;-59
2022/04/04 02:33:16;;;;;;;8.80;6.17;;;2.90;99.90;;;;;;5092864;28;20177;-59
2022/04/04 02:35:42;;;;;;;6.47;5.73;;;2.80;99.90;;;;;;5092925;28;20182;-59
2022/04/04 02:38:09;;;;;;;8.43;6.23;;;2.90;99.90;;;;;;5092837;28;20173;-59
2022/04/04 02:40:35;;;;;;;6.93;5.90;;;2.90;99.90;;;;;;5093137;28;20185;-58
2022/04/04 02:43:02;;;;;;;6.43;5.73;;;2.90;99.90;;;;;;5092515;28;20185;-59
2022/04/04 02:45:29;;;;;;;7.23;5.20;;;3.00;99.90;;;;;;5074839;28;20236;-59
2022/04/04 02:47:55;;;;;;;9.33;6.00;;;3.00;99.90;;;;;;5092771;28;20185;-59
2022/04/04 02:50:21;;;;;;;8.17;5.63;;;3.00;99.90;;;;;;5074472;28;20278;-59
2022/04/04 02:52:47;;;;;;;9.77;6.27;;;3.10;99.90;;;;;;5092909;28;20181;-59
2022/04/04 02:57:57;;;;;;;7.37;5.43;;;3.10;99.90;;;;;;5092777;28;20235;-59
2022/04/04 03:00:27;;;;;;;8.67;6.17;;;3.10;99.90;;;;;;5074997;28;20181;-58
2022/04/04 03:02:54;;;;;;;8.40;5.83;;;3.20;99.90;;;;;;5075209;28;20205;-59
2022/04/04 03:05:20;;;;;;;6.10;5.50;;;3.20;99.90;;;;;;5093064;28;20182;-58
2022/04/04 03:07:46;;;;;;;5.80;5.20;;;3.10;99.90;;;;;;5074655;28;20536;-59
2022/04/04 03:10:13;;;;;;;6.17;5.57;;;3.00;99.90;;;;;;5078198;28;20214;-59
2022/04/04 03:12:44;;;;;;;7.47;5.73;;;3.00;99.90;;;;;;5078160;28;20547;-59
2022/04/04 03:15:14;;;;;;;8.53;6.30;;;3.10;99.90;;;;;;5078397;28;20179;-58
2022/04/04 03:17:42;;;;;;;7.57;5.53;;;3.10;99.90;;;;;;5077924;28;20643;-59
2022/04/04 03:20:10;;;;;;;6.67;5.83;;;3.20;99.90;;;;;;5096372;28;20192;-59
2022/04/04 03:22:41;;;;;;;6.97;5.80;;;3.10;99.90;;;;;;5096141;28;20205;-59
2022/04/04 03:25:08;;;;;;;7.90;6.17;;;3.10;99.90;;;;;;5096104;28;20184;-59
2022/04/04 03:27:36;;;;;;;7.40;5.57;;;3.10;99.90;;;;;;5044698;28;20181;-59
2022/04/04 03:30:03;;;;;;;7.73;5.83;;;3.10;99.90;;;;;;5095806;28;20267;-59
2022/04/04 03:32:28;;;;;;;6.53;5.77;;;2.90;99.90;;;;;;5095882;28;20185;-59
2022/04/04 03:34:54;;;;;;;8.10;6.43;;;2.90;99.90;;;;;;5096028;28;20237;-59
2022/04/04 03:37:20;;;;;;;7.90;6.20;;;2.90;99.90;;;;;;5077820;28;20175;-59
2022/04/04 03:39:45;;;;;;;6.63;5.57;;;2.90;99.90;;;;;;5095783;28;20192;-59
2022/04/04 03:42:11;;;;;;;8.03;6.17;;;3.00;99.90;;;;;;5095644;28;20181;-59
2022/04/04 03:44:37;;;;;;;8.67;6.03;;;3.10;99.90;;;;;;5095424;28;20188;-59
2022/04/04 03:47:03;;;;;;;8.93;6.60;;;3.20;99.90;;;;;;5078076;28;20234;-59
2022/04/04 03:49:29;;;;;;;6.97;6.07;;;3.20;99.90;;;;;;5077426;28;20216;-59
2022/04/04 03:51:55;;;;;;;8.33;6.50;;;3.30;99.90;;;;;;5077497;28;20192;-59
2022/04/04 03:54:21;;;;;;;8.13;6.33;;;3.20;99.90;;;;;;5077810;28;20166;-59
2022/04/04 03:56:47;;;;;;;10.83;7.27;;;3.30;99.90;;;;;;5095421;28;20197;-59
2022/04/04 03:59:13;;;;;;;11.10;7.30;;;3.20;99.90;;;;;;5077513;28;20235;-59
2022/04/04 04:01:39;;;;;;;7.27;6.57;;;3.30;99.90;;;;;;5095470;28;20285;-59
2022/04/04 04:04:04;;;;;;;8.57;6.57;;;3.40;99.90;;;;;;5060732;28;20198;-59
2022/04/04 04:06:33;;;;;;;9.30;6.60;;;3.50;99.90;;;;;;5060513;28;20542;-59
2022/04/04 04:08:59;;;;;;;7.83;7.03;;;3.50;99.90;;;;;;5095250;28;20213;-59
2022/04/04 04:11:25;;;;;;;8.20;6.70;;;3.50;99.90;;;;;;5060448;28;20551;-59
2022/04/04 04:13:51;;;;;;;9.80;7.00;;;3.60;99.90;;;;;;5094939;28;20238;-59
2022/04/04 04:16:17;;;;;;;11.60;7.47;;;3.60;99.90;;;;;;5095103;28;20177;-59
2022/04/04 04:18:43;;;;;;;8.47;6.87;;;3.60;99.90;;;;;;5094611;28;20709;-59
2022/04/04 04:21:10;;;;;;;10.27;6.83;;;3.60;99.90;;;;;;5076708;28;20629;-59
2022/04/04 04:23:37;;;;;;;13.07;7.60;;;3.70;99.90;;;;;;5076939;28;20679;-59
2022/04/04 04:26:05;;;;;;;9.40;6.87;;;3.60;99.90;;;;;;5077025;28;20537;-59
2022/04/04 04:28:32;;;;;;;12.13;7.27;;;3.50;99.90;;;;;;5094681;28;20650;-59
2022/04/04 04:30:58;;;;;;;7.77;6.90;;;3.60;99.90;;;;;;5077109;28;20181;-59
2022/04/04 04:33:24;;;;;;;8.63;6.63;;;3.60;99.90;;;;;;5094785;28;20205;-59
2022/04/04 04:35:50;;;;;;;10.63;7.20;;;3.60;99.90;;;;;;5076771;28;20173;-59
2022/04/04 04:38:16;;;;;;;8.07;6.97;;;3.60;99.90;;;;;;5094605;28;20641;-59
2022/04/04 04:40:42;;;;;;;8.13;7.30;;;3.60;99.90;;;;;;5094193;28;20285;-59
2022/04/04 04:43:08;;;;;;;8.17;6.93;;;3.60;99.90;;;;;;5076221;28;20552;-59
2022/04/04 04:45:34;;;;;;;8.20;6.83;;;3.70;99.90;;;;;;5076412;28;20226;-59
2022/04/04 04:47:59;;;;;;;9.90;7.60;;;3.70;99.90;;;;;;5076304;28;20178;-59
2022/04/04 04:50:26;;;;;;;8.20;7.03;;;3.70;99.90;;;;;;5094123;28;20216;-59
2022/04/04 04:52:53;;;;;;;11.37;7.67;;;3.80;99.90;;;;;;5075057;28;20186;-59
2022/04/04 04:55:21;;;;;;;9.43;7.40;;;3.80;99.90;;;;;;5094049;28;20187;-59
2022/04/04 04:57:48;;;;;;;8.07;7.27;;;3.80;99.90;;;;;;5076378;28;20188;-59
2022/04/04 05:00:16;;;;;;;9.43;7.93;;;3.80;99.90;;;;;;5094305;28;20208;-58
2022/04/04 05:02:42;;;;;;;11.23;8.40;;;4.00;99.90;;;;;;5094391;28;20543;-52
2022/04/04 05:05:08;;;;;;;9.30;8.20;;;4.00;99.90;;;;;;5094333;28;20193;-58
2022/04/04 05:07:34;;;;;;;10.83;8.37;;;4.10;99.90;;;;;;5093934;28;20204;-58
2022/04/04 05:10:00;;;;;;;9.00;7.07;;;4.00;99.90;;;;;;5092763;28;20702;-58
2022/04/04 05:12:25;;;;;;;8.47;7.67;;;4.10;99.90;;;;;;5094405;28;20181;-58
2022/04/04 05:14:51;;;;;;;9.50;7.50;;;4.10;99.90;;;;;;5075867;28;20181;-58
2022/04/04 05:17:17;;;;;;;9.17;7.70;;;4.10;99.90;;;;;;5075944;28;20697;-58
2022/04/04 05:19:42;;;;;;;9.07;7.97;;;4.10;99.90;;;;;;5093847;28;20182;-58
2022/04/04 05:22:08;;;;;;;10.30;8.00;;;4.20;99.90;;;;;;5093673;28;20188;-58
2022/04/04 05:24:35;;;;;;;7.67;6.87;;;4.20;99.90;;;;;;5075699;28;20637;-58
2022/04/04 05:27:00;;;;;;;12.00;7.77;;;4.20;99.90;;;;;;5075837;28;20272;-58
2022/04/04 05:29:26;;;;;;;11.10;7.77;;;4.30;99.90;;;;;;5093807;28;20300;-58
2022/04/04 05:31:56;;;;;;;11.07;7.83;;;4.40;99.90;;;;;;5075073;28;20176;-58
2022/04/04 05:34:25;;;;;;;9.30;8.30;;;4.40;99.90;;;;;;5093604;28;20185;-58
2022/04/04 05:36:50;;;;;;;9.60;8.23;;;4.50;99.90;;;;;;5093480;28;20310;-58
2022/04/04 05:39:16;;;;;;;11.97;8.33;;;4.40;99.90;;;;;;5075347;28;20276;-58
2022/04/04 05:41:42;;;;;;;8.63;7.70;;;4.40;99.90;;;;;;5093733;28;20179;-58
2022/04/04 05:44:08;;;;;;;10.53;7.27;;;4.50;99.90;;;;;;5093582;28;20173;-58
2022/04/04 05:46:34;;;;;;;10.67;7.73;;;4.50;99.90;;;;;;5093462;28;20177;-58
2022/04/04 05:49:01;;;;;;;9.20;7.97;;;4.60;99.90;;;;;;5093274;28;20218;-58
2022/04/04 05:51:28;;;;;;;8.83;7.77;;;4.60;99.90;;;;;;5075204;28;20174;-58
2022/04/04 05:53:55;;;;;;;10.10;8.17;;;4.70;99.90;;;;;;5093314;28;20176;-58
2022/04/04 05:56:21;;;;;;;9.50;7.53;;;4.60;99.90;;;;;;5075307;28;20723;-58
2022/04/04 05:58:50;;;;;;;9.07;7.50;;;4.70;99.90;;;;;;5075638;28;20211;-59
2022/04/04 06:01:16;;;;;;;9.37;7.93;;;4.70;99.90;;;;;;5093407;28;20187;-59
2022/04/04 06:03:42;;;;;;;11.80;9.10;;;4.70;99.90;;;;;;5093203;28;20197;-59
2022/04/04 06:06:08;;;;;;;11.43;9.40;;;4.80;99.90;;;;;;5075239;28;20182;-59
2022/04/04 06:08:34;;;;;;;9.53;8.37;;;4.80;99.90;;;;;;5093063;28;20181;-59
2022/04/04 06:10:59;;;;;;;11.97;9.07;;;4.90;99.90;;;;;;5093580;28;20632;-58
2022/04/04 06:13:25;;;;;;;12.80;8.83;;;4.90;99.90;;;;;;5075078;28;20177;-58
2022/04/04 06:15:51;;;;;;;11.67;9.10;;;4.80;99.90;;;;;;5093145;28;20720;-58
2022/04/04 06:18:17;;;;;;;13.43;10.00;;;4.90;99.90;;;;;;5093279;28;20169;-58
2022/04/04 06:20:42;;;;;;;11.33;8.93;;;4.90;99.90;;;;;;5075095;28;20318;-59
2022/04/04 06:23:09;;;;;;;10.70;8.97;;;5.10;99.90;;;;;;5075054;28;20215;-58
2022/04/04 06:25:35;;;;;;;9.67;8.53;;;5.00;99.90;;;;;;5093160;28;20590;-58
2022/04/04 06:28:01;;;;;;;10.13;8.23;;;5.10;99.90;;;;;;5075056;28;20182;-58
2022/04/04 06:30:27;;;;;;;11.77;7.90;;;5.10;99.90;;;;;;5092860;28;20258;-58
2022/04/04 06:32:53;;;;;;;10.90;7.93;;;5.20;99.90;;;;;;5092863;28;20238;-58
2022/04/04 06:35:19;;;;;;;9.90;8.27;;;5.20;99.90;;;;;;5092897;28;20179;-58
2022/04/04 06:37:46;;;;;;;11.07;8.40;;;5.30;99.90;;;;;;5074638;28;20185;-58
2022/04/04 06:40:15;;;;;;;11.45;8.15;;;5.30;99.90;;;;;;5075047;28;20238;-58
2022/04/04 06:42:42;;;;;;;10.33;8.40;;;5.40;99.90;;;;;;5075387;28;20177;-58
2022/04/04 06:45:10;;;;;;;10.40;8.00;;;5.50;99.90;;;;;;5096447;28;20203;-58
2022/04/04 06:47:37;;;;;;;10.98;8.55;;;5.60;99.90;;;;;;5078518;28;20174;-58
2022/04/04 06:50:04;;;;;;;11.45;8.55;;;5.70;99.90;;;;;;5078637;28;20739;-58
2022/04/04 06:52:30;;;;;;;10.03;8.57;;;5.90;99.90;;;;;;5096777;28;20196;-58
2022/04/04 06:54:56;;;;;;;10.00;8.47;;;6.00;99.90;;;;;;5096634;28;20176;-58
2022/04/04 06:57:23;;;;;;;10.13;8.45;;;6.20;99.90;;;;;;5096604;28;20181;-58
2022/04/04 06:59:49;;;;;;;8.68;7.90;;;6.30;99.90;;;;;;5096377;28;20654;-59
2022/04/04 07:02:14;;;;;;;9.50;7.37;;;6.30;99.90;;;;;;5096431;28;20170;-58
2022/04/04 07:04:43;;;;;;;9.13;7.72;;;6.40;99.90;;;;;;5096184;28;20193;-59
2022/04/04 07:07:09;;;;;;;12.15;8.07;;;6.40;99.90;;;;;;5078897;28;20181;-58
2022/04/04 07:09:35;;;;;;;11.30;7.78;;;6.50;99.90;;;;;;5096201;28;20217;-58
2022/04/04 07:12:02;;;;;;;11.70;7.68;;;6.60;99.90;;;;;;5096376;28;20185;-59
2022/04/04 07:14:29;;;;;;;10.80;7.50;;;6.60;99.90;;;;;;5095984;28;20223;-58
2022/04/04 07:16:55;;;;;;;7.97;6.97;;;6.70;99.90;;;;;;5096143;28;20578;-59
2022/04/04 07:19:22;;;;;;;9.20;6.95;;;6.80;99.90;;;;;;5096028;28;20185;-59
2022/04/04 07:21:51;;;;;;;8.95;7.30;;;7.00;99.90;;;;;;5096348;28;20238;-59
2022/04/04 07:24:18;;;;;;;9.73;6.95;;;7.10;99.90;;;;;;5096236;28;20170;-59
2022/04/04 07:26:44;;;;;;;10.88;6.82;;;7.10;99.90;;;;;;5096155;28;20200;-58
2022/04/04 07:29:10;;;;;;;9.00;7.10;;;7.20;99.90;;;;;;5095960;28;20259;-59
2022/04/04 07:31:36;;;;;;;8.70;6.78;;;7.40;99.90;;;;;;5077798;28;20181;-59
2022/04/04 07:34:03;;;;;;;10.90;7.32;;;7.40;99.90;;;;;;5095672;28;20196;-59
2022/04/04 07:36:29;;;;;;;10.32;7.90;;;7.50;99.90;;;;;;5077858;28;20222;-59
2022/04/04 07:38:55;;;;;;;10.93;7.50;;;7.50;99.90;;;;;;5095741;28;20181;-59
2022/04/04 07:41:21;;;;;;;8.25;6.93;;;7.70;99.90;;;;;;5095684;28;20174;-59
2022/04/04 07:43:47;;;;;;;8.93;7.32;;;7.70;99.90;;;;;;5095697;28;20197;-58
2022/04/04 07:46:13;;;;;;;8.68;7.03;;;7.70;99.90;;;;;;5095597;28;20545;-59
2022/04/04 07:48:41;;;;;;;9.98;7.13;;;7.60;99.90;;;;;;5095362;28;20181;-58
2022/04/04 07:51:08;;;;;;;9.50;6.97;;;7.60;99.90;;;;;;5078059;28;20189;-59
2022/04/04 07:53:35;;;;;;;11.07;7.55;;;7.50;99.90;;;;;;5095571;28;20537;-59
2022/04/04 07:56:01;;;;;;;11.32;7.75;;;7.60;99.90;;;;;;5094888;28;20548;-59
2022/04/04 07:58:27;;;;;;;10.50;7.28;;;7.60;99.90;;;;;;5095375;28;20166;-59
2022/04/04 08:00:52;;;;;;;7.90;6.80;;;7.50;99.90;;;;;;5095594;28;20201;-59
2022/04/04 08:03:19;;;;;;;9.68;6.43;;;7.60;99.90;;;;;;5077301;28;20173;-58
2022/04/04 08:05:45;;;;;;;10.70;6.95;;;7.70;99.90;;;;;;5095388;28;20180;-58
2022/04/04 08:08:11;;;;;;;9.90;6.47;;;7.70;99.90;;;;;;5077240;28;20181;-58
2022/04/04 08:10:36;;;;;;;9.07;6.72;;;7.80;99.90;;;;;;5095269;28;20251;-58
2022/04/04 08:13:02;;;;;;;10.45;7.20;;;8.00;99.90;;;;;;5095296;28;20261;-58
2022/04/04 08:15:28;;;;;;;7.88;6.43;;;8.10;99.90;;;;;;5076857;28;20583;-58
2022/04/04 08:17:54;;;;;;;7.68;6.15;;;8.00;99.90;;;;;;5095036;28;20170;-59
2022/04/04 08:20:21;;;;;;;7.70;6.25;;;7.90;99.90;;;;;;5095276;28;20182;-59
2022/04/04 08:22:47;;;;;;;9.98;6.93;;;7.90;99.90;;;;;;5095019;28;20179;-59
2022/04/04 08:25:15;;;;;;;7.10;6.35;;;7.80;99.90;;;;;;5094970;28;20201;-59
2022/04/04 08:27:43;;;;;;;9.00;6.20;;;7.90;99.90;;;;;;5094897;28;20660;-59
2022/04/04 08:30:10;;;;;;;9.93;7.18;;;7.80;99.90;;;;;;5094615;28;20209;-58
2022/04/04 08:32:36;;;;;;;16.60;7.38;;;8.00;99.90;;;;;;5094816;28;20201;-59
2022/04/04 08:35:04;;;;;;;8.32;6.97;;;7.90;99.90;;;;;;5077027;28;20178;-58
2022/04/04 08:37:31;;;;;;;9.82;6.43;;;8.00;99.90;;;;;;5094671;28;20166;-58
2022/04/04 08:39:57;;;;;;;9.88;6.90;;;8.00;99.90;;;;;;5094614;28;20204;-59
2022/04/04 08:42:27;;;;;;;10.80;7.35;;;8.10;99.90;;;;;;5060106;28;20636;-59
2022/04/04 08:44:58;;;;;;;9.68;7.30;;;8.10;99.90;;;;;;5094514;28;20208;-59
2022/04/04 08:47:24;;;;;;;9.38;6.85;;;8.20;99.90;;;;;;5076512;28;20532;-59
2022/04/04 08:49:54;;;;;;;8.63;6.70;;;8.30;99.90;;;;;;5059743;28;20249;-58
2022/04/04 08:52:21;;;;;;;7.53;6.80;;;8.40;99.90;;;;;;5094462;28;20174;-59
2022/04/04 08:54:48;;;;;;;7.90;7.10;;;8.30;99.90;;;;;;5094601;28;20722;-58
2022/04/04 08:57:14;;;;;;;9.02;6.90;;;8.20;99.90;;;;;;5076246;28;20205;-59
2022/04/04 08:59:41;;;;;;;10.75;7.55;;;8.20;99.90;;;;;;5094421;28;20169;-59
2022/04/04 09:02:07;;;;;;;9.32;7.18;;;8.10;99.90;;;;;;5094217;28;20253;-59
2022/04/04 09:04:33;;;;;;;9.45;7.13;;;8.10;99.90;;;;;;5094017;28;20293;-59
2022/04/04 09:07:05;;;;;;;8.90;7.38;;;8.00;99.90;;;;;;5075045;28;20658;-59
2022/04/04 09:09:43;;;;;;;9.60;7.65;;;7.90;99.90;;;;;;5093958;28;20232;-59
2022/04/04 09:12:19;;;;;;;12.15;7.57;;;7.90;99.90;;;;;;5094014;28;20173;-59
2022/04/04 09:14:48;;;;;;;9.93;7.75;;;7.80;99.90;;;;;;5093990;28;20205;-59
2022/04/04 09:17:16;;;;;;;11.52;8.40;;;7.70;99.90;;;;;;5093822;28;20179;-59
2022/04/04 09:19:42;;;;;;;10.40;7.47;;;7.70;99.90;;;;;;5093816;28;20178;-58
2022/04/04 09:22:15;;;;;;;10.13;6.97;;;7.70;99.90;;;;;;5059053;28;20181;-58
2022/04/04 09:24:52;;;;;;;9.52;7.60;;;7.80;99.90;;;;;;5075870;28;20276;-58
2022/04/04 09:27:22;;;;;;;9.05;7.30;;;7.80;99.90;;;;;;5094042;28;20184;-59
2022/04/04 09:29:48;;;;;;;10.40;8.52;;;7.70;99.90;;;;;;5075600;28;20238;-59
2022/04/04 09:32:15;;;;;;;8.68;7.63;;;7.70;99.90;;;;;;5075282;28;20180;-59
2022/04/04 09:34:52;;;;;;;9.32;8.18;;;7.70;99.90;;;;;;5075523;28;20667;-59
2022/04/04 09:37:21;;;;;;;9.18;7.68;;;7.50;99.90;;;;;;5075538;28;20665;-59
2022/04/04 09:39:50;;;;;;;12.35;8.23;;;7.50;99.90;;;;;;5093484;28;20178;-59
2022/04/04 09:42:18;;;;;;;10.13;8.60;;;7.50;99.90;;;;;;5093591;28;20560;-59
2022/04/04 09:45:05;;;;;;;9.50;8.50;;;7.50;99.90;;;;;;5093460;28;20166;-59
2022/04/04 09:47:51;;;;;;;10.65;9.18;;;7.40;99.90;;;;;;5093601;28;20170;-58
2022/04/04 09:50:30;;;;;;;11.48;9.38;;;7.50;99.90;;;;;;5093456;28;20202;-59
2022/04/04 09:52:57;;;;;;;11.35;9.05;;;7.50;99.90;;;;;;5093398;28;20189;-59
2022/04/04 09:55:37;;;;;;;11.02;9.43;;;7.30;99.90;;;;;;5093265;28;20173;-59
2022/04/04 09:58:05;;;;;;;9.68;8.50;;;7.30;99.90;;;;;;5093541;28;20543;-58
2022/04/04 10:00:32;;;;;;;10.23;9.15;;;7.20;99.90;;;;;;5093348;28;20186;-59
2022/04/04 10:02:58;;;;;;;9.82;8.75;;;7.10;99.90;;;;;;5093236;28;20222;-59
2022/04/04 10:05:27;;;;;;;10.07;8.80;;;7.20;99.90;;;;;;5093228;28;20645;-59
2022/04/04 10:07:58;;;;;;;10.20;9.15;;;7.10;99.90;;;;;;5093163;28;20193;-59
2022/04/04 10:10:29;;;;;;;11.82;9.23;;;7.10;99.90;;;;;;5059684;28;20201;-59
2022/04/04 10:12:56;;;;;;;11.25;9.35;;;7.10;99.90;;;;;;5093395;28;20177;-59
2022/04/04 10:15:23;;;;;;;11.48;10.27;;;7.10;99.90;;;;;;5093222;28;20170;-58
2022/04/04 10:17:50;;;;;;;11.23;9.57;;;7.10;99.90;;;;;;5059941;28;20185;-59
2022/04/04 10:20:17;;;;;;;12.63;10.77;;;7.20;99.90;;;;;;5097292;28;20184;-59
2022/04/04 10:22:44;;;;;;;12.25;10.32;;;7.10;99.90;;;;;;5097189;28;20173;-59
2022/04/04 10:25:13;;;;;;;11.48;10.07;;;7.20;99.90;;;;;;5097121;28;20689;-59
2022/04/04 10:27:40;;;;;;;11.48;10.27;;;7.20;99.90;;;;;;5079130;28;20629;-59
2022/04/04 10:30:08;;;;;;;11.90;10.45;;;7.20;99.90;;;;;;5097015;28;20201;-59
2022/04/04 10:32:34;;;;;;;10.80;9.70;;;7.10;99.90;;;;;;5097138;28;20557;-59
2022/04/04 10:35:12;;;;;;;11.27;9.95;;;7.10;99.90;;;;;;5078992;28;20180;-59
2022/04/04 10:37:45;;;;;;;11.85;10.65;;;7.00;99.90;;;;;;5097026;28;20180;-59
2022/04/04 10:40:23;;;;;;;10.57;9.45;;;7.10;99.90;;;;;;5097008;28;20181;-59
2022/04/04 10:43:07;;;;;;;13.93;11.13;;;7.10;99.90;;;;;;5097031;28;20238;-58
2022/04/04 10:45:58;;;;;;;13.18;10.98;;;7.20;99.90;;;;;;5096794;28;20180;-59
2022/04/04 10:48:32;;;;;;;12.30;10.10;;;7.20;99.90;;;;;;5078595;28;20170;-59
2022/04/04 10:51:03;;;;;;;11.32;9.50;;;7.30;99.90;;;;;;5096770;28;20205;-58
2022/04/04 10:53:43;;;;;;;10.52;9.07;;;7.30;99.90;;;;;;5096722;28;20260;-59
2022/04/04 10:56:11;;;;;;;10.32;9.15;;;7.20;99.90;;;;;;5096552;28;20230;-59
2022/04/04 10:58:37;;;;;;;12.40;9.80;;;7.10;99.90;;;;;;5096634;28;20260;-59
2022/04/04 11:01:16;;;;;;;10.38;9.38;;;7.20;99.90;;;;;;5096682;28;20202;-59
2022/04/04 11:03:57;;;;;;;14.02;9.23;;;7.10;99.90;;;;;;5078194;28;20196;-58
2022/04/04 11:09:26;;;;;;;11.23;9.05;;;7.10;99.90;;;;;;5096571;28;20200;-59
2022/04/04 11:12:09;;;;;;;9.00;7.40;;;7.00;99.90;;;;;;5096258;28;20185;-59
2022/04/04 11:14:38;;;;;;;9.85;8.32;;;7.10;99.90;;;;;;5096265;28;20212;-59
2022/04/04 11:17:11;;;;;;;9.88;8.13;;;7.10;99.90;;;;;;5096310;28;20177;-60
2022/04/04 11:19:55;;;;;;;9.52;7.95;;;7.10;99.90;;;;;;5096427;28;20239;-59
2022/04/04 11:22:27;;;;;;;9.00;8.10;;;7.10;99.90;;;;;;5078238;28;20177;-59
2022/04/04 11:25:03;;;;;;;9.70;8.05;;;7.20;99.90;;;;;;5078033;28;20185;-59
2022/04/04 11:27:29;;;;;;;8.23;7.45;;;7.30;99.90;;;;;;5096573;28;20644;-59
2022/04/04 11:29:55;;;;;;;11.10;8.70;;;7.40;99.90;;;;;;5095081;28;20198;-59
2022/04/04 11:32:33;;;;;;;9.90;8.70;;;7.40;99.90;;;;;;5095913;28;20636;-59
2022/04/04 11:35:08;;;;;;;10.80;9.05;;;7.40;99.90;;;;;;5096112;28;20169;-59
2022/04/04 11:37:41;;;;;;;10.00;9.02;;;7.40;99.90;;;;;;5077673;28;20211;-59
2022/04/04 11:40:13;;;;;;;9.70;8.68;;;7.30;99.90;;;;;;5095959;28;20178;-60
2022/04/04 11:42:47;;;;;;;10.05;9.05;;;7.20;99.90;;;;;;5078695;28;20604;-59
2022/04/04 11:45:21;;;;;;;9.77;8.73;;;7.40;99.90;;;;;;5095888;28;20219;-59
2022/04/04 11:48:04;;;;;;;10.00;8.68;;;7.50;99.90;;;;;;5095650;28;20177;-59
2022/04/04 11:50:34;;;;;;;9.77;8.52;;;7.40;99.90;;;;;;5095708;28;20205;-59
2022/04/04 11:53:05;;;;;;;10.00;8.40;;;7.20;99.90;;;;;;5095913;28;20539;-59
2022/04/04 11:55:33;;;;;;;9.93;8.95;;;7.30;99.90;;;;;;5095748;28;20621;-59
2022/04/04 11:58:00;;;;;;;9.90;8.60;;;7.40;99.90;;;;;;5077397;28;20185;-59
2022/04/04 12:00:32;;;;;;;12.70;9.80;;;7.30;99.90;;;;;;5095271;28;20173;-59
2022/04/04 12:03:10;;;;;;;11.00;9.93;;;7.30;99.90;;;;;;5095386;28;20186;-59
2022/04/04 12:05:43;;;;;;;10.88;9.70;;;7.40;99.90;;;;;;5095454;28;20210;-59
2022/04/04 12:08:12;;;;;;;11.57;10.38;;;7.40;99.90;;;;;;5095194;28;20624;-59
2022/04/04 12:10:40;;;;;;;10.65;9.63;;;7.30;99.90;;;;;;5095076;28;20688;-59
2022/04/04 12:13:19;;;;;;;11.68;10.50;;;7.40;99.90;;;;;;5094966;28;20545;-59
2022/04/04 12:15:46;;;;;;;11.88;10.27;;;7.40;99.90;;;;;;5095311;28;20235;-59
2022/04/04 12:18:19;;;;;;;13.05;9.40;;;7.50;99.90;;;;;;5095055;28;20185;-59
2022/04/04 12:20:47;;;;;;;11.45;10.30;;;7.50;99.90;;;;;;5095036;28;20636;-59
2022/04/04 12:26:13;;;;;;;12.05;10.40;;;7.60;99.90;;;;;;5095212;28;20196;-59
2022/04/04 12:28:41;;;;;;;11.38;10.27;;;7.50;99.90;;;;;;5095044;28;20505;-59
2022/04/04 12:31:19;;;;;;;14.23;9.90;;;7.50;99.90;;;;;;5094799;28;20236;-59
2022/04/04 12:33:52;;;;;;;11.13;9.75;;;7.50;99.90;;;;;;5095408;28;20181;-59
2022/04/04 12:36:30;;;;;;;11.38;10.20;;;7.50;99.90;;;;;;5095066;28;20184;-59
2022/04/04 12:39:00;;;;;;;11.38;9.50;;;7.40;99.90;;;;;;5076834;28;20179;-59
2022/04/04 12:41:26;;;;;;;13.05;10.27;;;7.40;99.90;;;;;;5094578;28;20590;-60
2022/04/04 12:44:03;;;;;;;11.35;9.85;;;7.40;99.90;;;;;;5076363;28;20625;-59
2022/04/04 12:46:31;;;;;;;11.50;9.75;;;7.40;99.90;;;;;;5076472;28;20212;-59
2022/04/04 12:49:30;;;;;;;12.20;10.73;;;7.50;99.90;;;;;;5094566;28;20169;-59
2022/04/04 12:52:05;;;;;;;11.30;10.20;;;7.50;99.90;;;;;;5057257;28;20186;-59
2022/04/04 12:54:36;;;;;;;11.93;9.40;;;7.60;99.90;;;;;;5094322;28;20544;-59
2022/04/04 12:57:05;;;;;;;10.93;9.93;;;7.40;99.90;;;;;;5094328;28;20494;-59
2022/04/04 12:59:45;;;;;;;10.80;9.63;;;7.40;99.90;;;;;;5094502;28;20535;-59
2022/04/04 13:02:11;;;;;;;11.43;10.05;;;7.40;99.90;;;;;;5094275;28;20301;-59
2022/04/04 13:04:39;;;;;;;11.93;10.43;;;7.50;99.90;;;;;;5076144;28;20662;-60
2022/04/04 13:07:15;;;;;;;12.02;9.98;;;7.50;99.90;;;;;;5076152;28;20208;-60